F/V Mare Liberum — FVHW — position and weather

sailwx.info

Track history (hours):
 
Tides and Currents Weather Stations Pressure Air Temp Water Temp Dewpoint Dewpoint Depression Visibility Wind Speed Wind Dir Waves Ship Positions

F/V Mare Liberum

Last reported at 2016-Sep-30 14:32 UTC. Time now 2016-Sep-30 15:14 UTC.
Position N 46°20' W 001°59'.

Length 21 m.

Type: Fishing. MMSI: 227426000.

Date/timePositionNaut miles runAvg speedWind from/ knotsBaromVisibWave heightAir tempDewpointWater temp
2016-Sep-30 14:32N 46°20' W 001°59'1 1.4
2016-Sep-30 13:28N 46°19' W 001°59'1 0.3
2016-Sep-30 10:10N 46°19' W 002°00'1 0.2
2016-Sep-30 06:24N 46°19' W 001°59'1 0.5
2016-Sep-30 03:33N 46°20' W 001°59'2 0.3
2016-Sep-29 21:33N 46°19' W 001°58'0 0.1
2016-Sep-29 20:25N 46°19' W 001°58'0 0.0
2016-Sep-29 19:33N 46°19' W 001°58'1 0.2
2016-Sep-29 16:31N 46°20' W 001°58'1 1.3
2016-Sep-29 15:24N 46°19' W 001°60'1 0.8
2016-Sep-29 14:27N 46°20' W 002°00'1 1.6
2016-Sep-29 13:32N 46°19' W 001°59'0 0.1
2016-Sep-29 08:28N 46°19' W 001°59'1 0.8
2016-Sep-29 07:16N 46°20' W 001°60'2 0.2
2016-Sep-28 21:32N 46°19' W 001°57'0 0.1
2016-Sep-28 19:33N 46°19' W 001°58'3 0.7
2016-Sep-28 15:20N 46°21' W 002°01'1 0.2
2016-Sep-28 12:21N 46°20' W 002°01'1 0.2
2016-Sep-28 08:34N 46°21' W 002°00'10 1.9
2016-Sep-28 03:34N 46°30' W 002°05'9 8.9
2016-Sep-28 02:33N 46°38' W 002°11'25 8.2
2016-Sep-27 23:33N 47°02' W 002°19'6 1.6
2016-Sep-27 19:33N 46°56' W 002°23'32 6.3
2016-Sep-27 14:31N 46°27' W 002°04'6 6.2
2016-Sep-27 13:33N 46°22' W 002°00'3 0.9
2016-Sep-27 10:30N 46°20' W 001°57'2 0.2
2016-Sep-27 00:33N 46°22' W 001°59'1 0.3
2016-Sep-26 20:11N 46°21' W 001°58'0 0.0
2016-Sep-26 19:27N 46°21' W 001°58'0 0.1
2016-Sep-26 15:18N 46°21' W 001°58'1 0.5
2016-Sep-26 13:33N 46°20' W 001°59'1 0.4
2016-Sep-26 11:34N 46°20' W 001°59'1 0.4
2016-Sep-26 08:32N 46°20' W 002°01'1 0.2
2016-Sep-26 02:28N 46°21' W 002°00'1 1.1
2016-Sep-26 01:33N 46°20' W 002°01'0 0.0
2016-Sep-25 16:07N 46°20' W 002°01'0 0.0
2016-Sep-25 15:28N 46°20' W 002°01'0 0.0
2016-Sep-25 14:33N 46°20' W 002°01'1 0.4
2016-Sep-25 12:29N 46°20' W 002°00'2 2.0
2016-Sep-25 11:21N 46°18' W 002°02'0 0.1
2016-Sep-25 10:33N 46°18' W 002°02'1 0.5
2016-Sep-25 09:30N 46°18' W 002°01'2 0.7
2016-Sep-25 07:27N 46°19' W 001°59'1 0.4
2016-Sep-25 04:34N 46°20' W 001°59'1 0.2
2016-Sep-25 00:29N 46°19' W 002°00'0 0.0
2016-Sep-24 22:32N 46°19' W 002°00'0 0.0
2016-Sep-24 21:29N 46°19' W 002°00'0 0.0
2016-Sep-24 19:16N 46°19' W 002°00'2 2.3
2016-Sep-24 18:21N 46°18' W 002°02'0 0.3
2016-Sep-24 17:33N 46°17' W 002°01'1 0.6
2016-Sep-24 16:28N 46°18' W 002°01'2 0.8
2016-Sep-24 14:33N 46°18' W 001°59'0 0.2
2016-Sep-24 12:34N 46°18' W 001°60'5 2.5
2016-Sep-24 10:34N 46°22' W 002°03'4 4.2
2016-Sep-24 09:30N 46°26' W 002°06'8 1.3
2016-Sep-24 03:29N 46°20' W 001°60'0 0.0
2016-Sep-24 02:33N 46°20' W 001°60'0 0.0
2016-Sep-24 01:33N 46°20' W 001°60'0 0.0
2016-Sep-24 00:15N 46°20' W 001°60'0 0.0
2016-Sep-23 19:33N 46°20' W 001°59'0 0.1
2016-Sep-23 16:12N 46°20' W 001°59'0 0.1
2016-Sep-23 15:27N 46°20' W 001°59'2 1.0
2016-Sep-23 13:33N 46°19' W 002°01'1 0.3
2016-Sep-23 09:26N 46°19' W 001°60'1 0.3
2016-Sep-23 06:33N 46°18' W 002°00'2 0.8
2016-Sep-23 04:33N 46°19' W 001°58'2 1.8
2016-Sep-23 03:33N 46°18' W 002°00'0 0.2
2016-Sep-23 02:34N 46°18' W 002°00'1 0.1
2016-Sep-22 12:32N 46°18' W 001°59'2 0.2
2016-Sep-22 04:23N 46°19' W 002°02'1 1.2
2016-Sep-22 03:34N 46°18' W 002°02'1 0.2
2016-Sep-22 00:32N 46°18' W 002°02'0 0.0
2016-Sep-21 23:32N 46°18' W 002°02'0 0.0
2016-Sep-21 22:32N 46°18' W 002°02'10 0.8
2016-Sep-21 09:34N 46°27' W 002°07'9 9.3
2016-Sep-21 08:33N 46°36' W 002°11'26 8.5
2016-Sep-21 05:33N 47°01' W 002°20'  
Track history (hours):
 
Tides and Currents Weather Stations Pressure Air Temp Water Temp Dewpoint Dewpoint Depression Visibility Wind Speed Wind Dir Waves Ship Positions

F/V Mare Liberum

Last reported at 2016-Sep-30 14:32 UTC. Time now 2016-Sep-30 15:14 UTC.
Position N 46°20' W 001°59'.

Length 21 m.

Type: Fishing. MMSI: 227426000.

Date/timePositionNaut miles runAvg speedWind from/ knotsBaromVisibWave heightAir tempDewpointWater temp
2016-Sep-30 14:32N 46°20' W 001°59'1 1.4
2016-Sep-30 13:28N 46°19' W 001°59'1 0.3
2016-Sep-30 10:10N 46°19' W 002°00'1 0.2
2016-Sep-30 06:24N 46°19' W 001°59'1 0.5
2016-Sep-30 03:33N 46°20' W 001°59'2 0.3
2016-Sep-29 21:33N 46°19' W 001°58'0 0.1
2016-Sep-29 20:25N 46°19' W 001°58'0 0.0
2016-Sep-29 19:33N 46°19' W 001°58'1 0.2
2016-Sep-29 16:31N 46°20' W 001°58'1 1.3
2016-Sep-29 15:24N 46°19' W 001°60'1 0.8
2016-Sep-29 14:27N 46°20' W 002°00'1 1.6
2016-Sep-29 13:32N 46°19' W 001°59'0 0.1
2016-Sep-29 08:28N 46°19' W 001°59'1 0.8
2016-Sep-29 07:16N 46°20' W 001°60'2 0.2
2016-Sep-28 21:32N 46°19' W 001°57'0 0.1
2016-Sep-28 19:33N 46°19' W 001°58'3 0.7
2016-Sep-28 15:20N 46°21' W 002°01'1 0.2
2016-Sep-28 12:21N 46°20' W 002°01'1 0.2
2016-Sep-28 08:34N 46°21' W 002°00'10 1.9
2016-Sep-28 03:34N 46°30' W 002°05'9 8.9
2016-Sep-28 02:33N 46°38' W 002°11'25 8.2
2016-Sep-27 23:33N 47°02' W 002°19'6 1.6
2016-Sep-27 19:33N 46°56' W 002°23'32 6.3
2016-Sep-27 14:31N 46°27' W 002°04'6 6.2
2016-Sep-27 13:33N 46°22' W 002°00'3 0.9
2016-Sep-27 10:30N 46°20' W 001°57'2 0.2
2016-Sep-27 00:33N 46°22' W 001°59'1 0.3
2016-Sep-26 20:11N 46°21' W 001°58'0 0.0
2016-Sep-26 19:27N 46°21' W 001°58'0 0.1
2016-Sep-26 15:18N 46°21' W 001°58'1 0.5
2016-Sep-26 13:33N 46°20' W 001°59'1 0.4
2016-Sep-26 11:34N 46°20' W 001°59'1 0.4
2016-Sep-26 08:32N 46°20' W 002°01'1 0.2
2016-Sep-26 02:28N 46°21' W 002°00'1 1.1
2016-Sep-26 01:33N 46°20' W 002°01'0 0.0
2016-Sep-25 16:07N 46°20' W 002°01'0 0.0
2016-Sep-25 15:28N 46°20' W 002°01'0 0.0
2016-Sep-25 14:33N 46°20' W 002°01'1 0.4
2016-Sep-25 12:29N 46°20' W 002°00'2 2.0
2016-Sep-25 11:21N 46°18' W 002°02'0 0.1
2016-Sep-25 10:33N 46°18' W 002°02'1 0.5
2016-Sep-25 09:30N 46°18' W 002°01'2 0.7
2016-Sep-25 07:27N 46°19' W 001°59'1 0.4
2016-Sep-25 04:34N 46°20' W 001°59'1 0.2
2016-Sep-25 00:29N 46°19' W 002°00'0 0.0
2016-Sep-24 22:32N 46°19' W 002°00'0 0.0
2016-Sep-24 21:29N 46°19' W 002°00'0 0.0
2016-Sep-24 19:16N 46°19' W 002°00'2 2.3
2016-Sep-24 18:21N 46°18' W 002°02'0 0.3
2016-Sep-24 17:33N 46°17' W 002°01'1 0.6
2016-Sep-24 16:28N 46°18' W 002°01'2 0.8
2016-Sep-24 14:33N 46°18' W 001°59'0 0.2
2016-Sep-24 12:34N 46°18' W 001°60'5 2.5
2016-Sep-24 10:34N 46°22' W 002°03'4 4.2
2016-Sep-24 09:30N 46°26' W 002°06'8 1.3
2016-Sep-24 03:29N 46°20' W 001°60'0 0.0
2016-Sep-24 02:33N 46°20' W 001°60'0 0.0
2016-Sep-24 01:33N 46°20' W 001°60'0 0.0
2016-Sep-24 00:15N 46°20' W 001°60'0 0.0
2016-Sep-23 19:33N 46°20' W 001°59'0 0.1
2016-Sep-23 16:12N 46°20' W 001°59'0 0.1
2016-Sep-23 15:27N 46°20' W 001°59'2 1.0
2016-Sep-23 13:33N 46°19' W 002°01'1 0.3
2016-Sep-23 09:26N 46°19' W 001°60'1 0.3
2016-Sep-23 06:33N 46°18' W 002°00'2 0.8
2016-Sep-23 04:33N 46°19' W 001°58'2 1.8
2016-Sep-23 03:33N 46°18' W 002°00'0 0.2
2016-Sep-23 02:34N 46°18' W 002°00'1 0.1
2016-Sep-22 12:32N 46°18' W 001°59'2 0.2
2016-Sep-22 04:23N 46°19' W 002°02'1 1.2
2016-Sep-22 03:34N 46°18' W 002°02'1 0.2
2016-Sep-22 00:32N 46°18' W 002°02'0 0.0
2016-Sep-21 23:32N 46°18' W 002°02'0 0.0
2016-Sep-21 22:32N 46°18' W 002°02'10 0.8
2016-Sep-21 09:34N 46°27' W 002°07'9 9.3
2016-Sep-21 08:33N 46°36' W 002°11'26 8.5
2016-Sep-21 05:33N 47°01' W 002°20'  

Dump ship's entire track history